Time;durP1;ratioP1;P1;durP2;ratioP2;P2;SDS_P1;SDS_P2;PMS_P1;PMS_P2;Temp;Humidity;BMP_temperature;BMP_pressure;BME280_temperature;BME280_humidity;BME280_pressure;Samples;Min_cycle;Max_cycle;Signal;HPM_P1;HPM_P2
2023/04/08 00:02:02;;;;;;;6.00;5.40;;;5.00;99.90;;;;;;5174762;27;20441;-91
2023/04/08 00:04:28;;;;;;;7.07;5.13;;;5.00;99.90;;;;;;5155931;27;20862;-90
2023/04/08 00:06:56;;;;;;;5.60;5.00;;;5.00;99.90;;;;;;5157167;27;20481;-91
2023/04/08 00:09:23;;;;;;;6.17;5.57;;;4.90;99.90;;;;;;5155672;27;20464;-90
2023/04/08 00:11:50;;;;;;;6.40;5.47;;;4.90;99.90;;;;;;5155054;27;20444;-91
2023/04/08 00:14:16;;;;;;;5.57;5.07;;;4.90;99.90;;;;;;5154389;27;20451;-91
2023/04/08 00:16:43;;;;;;;6.27;5.73;;;5.00;99.90;;;;;;5154657;27;20452;-91
2023/04/08 00:19:10;;;;;;;8.30;5.73;;;4.90;99.90;;;;;;5154591;27;20487;-90
2023/04/08 00:21:37;;;;;;;5.67;5.10;;;4.90;99.90;;;;;;5154367;27;20459;-91
2023/04/08 00:24:05;;;;;;;6.83;5.33;;;4.90;99.90;;;;;;5153821;27;20440;-91
2023/04/08 00:26:32;;;;;;;6.13;5.07;;;4.90;99.90;;;;;;5153829;27;20490;-91
2023/04/08 00:28:59;;;;;;;6.60;5.20;;;4.90;99.90;;;;;;5154184;27;20852;-90
2023/04/08 00:31:26;;;;;;;6.60;5.43;;;4.90;99.90;;;;;;5154079;27;20505;-90
2023/04/08 00:33:52;;;;;;;7.80;5.40;;;4.90;99.90;;;;;;5154422;27;20781;-90
2023/04/08 00:36:19;;;;;;;6.40;5.73;;;5.00;99.90;;;;;;5154194;27;20521;-91
2023/04/08 00:38:46;;;;;;;13.40;6.47;;;5.10;99.90;;;;;;5153626;27;20491;-90
2023/04/08 00:41:14;;;;;;;9.57;6.60;;;5.20;99.90;;;;;;5154200;27;20451;-90
2023/04/08 00:43:41;;;;;;;12.30;6.60;;;5.30;99.90;;;;;;5153274;27;20930;-91
2023/04/08 00:46:09;;;;;;;8.17;6.60;;;5.30;99.90;;;;;;5166732;27;20453;-91
2023/04/08 00:48:36;;;;;;;7.80;6.20;;;5.30;99.90;;;;;;5154328;27;20463;-91
2023/04/08 00:51:03;;;;;;;11.60;6.20;;;5.30;99.90;;;;;;5153950;27;20950;-90
2023/04/08 00:53:31;;;;;;;6.50;5.73;;;5.40;99.90;;;;;;5135677;27;20453;-91
2023/04/08 00:56:00;;;;;;;6.07;5.47;;;5.40;99.90;;;;;;5153474;27;20869;-91
2023/04/08 00:58:29;;;;;;;11.00;6.47;;;5.40;99.90;;;;;;5153419;27;21004;-90
2023/04/08 01:01:01;;;;;;;9.23;7.13;;;5.30;99.90;;;;;;5154012;27;20893;-90
2023/04/08 01:03:38;;;;;;;9.17;6.27;;;5.30;99.90;;;;;;5153578;27;20435;-91
2023/04/08 01:06:13;;;;;;;7.90;6.33;;;5.20;99.90;;;;;;5153868;27;20429;-91
2023/04/08 01:08:42;;;;;;;8.50;6.80;;;5.20;99.90;;;;;;5153044;27;20464;-91
2023/04/08 01:11:13;;;;;;;12.37;7.20;;;5.10;99.90;;;;;;5153626;27;20537;-90
2023/04/08 01:13:42;;;;;;;8.80;7.30;;;5.10;99.90;;;;;;5153283;27;20449;-91
2023/04/08 01:16:11;;;;;;;9.40;7.50;;;5.10;99.90;;;;;;5153184;27;20820;-90
2023/04/08 01:18:39;;;;;;;9.33;7.73;;;5.10;99.90;;;;;;5153483;27;20489;-90
2023/04/08 01:21:07;;;;;;;10.63;7.70;;;5.10;99.90;;;;;;5154018;27;20448;-91
2023/04/08 01:23:52;;;;;;;8.23;7.00;;;5.10;99.90;;;;;;5153614;27;20433;-91
2023/04/08 01:26:24;;;;;;;7.73;6.83;;;5.00;99.90;;;;;;5153273;27;20432;-89
2023/04/08 01:28:53;;;;;;;12.50;7.60;;;5.00;99.90;;;;;;5154162;27;20509;-91
2023/04/08 01:31:22;;;;;;;11.63;8.90;;;4.90;99.90;;;;;;5153778;27;20433;-90
2023/04/08 01:33:51;;;;;;;13.53;9.13;;;4.90;99.90;;;;;;5153610;27;20483;-91
2023/04/08 01:36:19;;;;;;;11.07;7.17;;;4.90;99.90;;;;;;5153267;27;20445;-92
2023/04/08 01:38:47;;;;;;;11.00;8.33;;;4.90;99.90;;;;;;5152950;27;20498;-91
2023/04/08 01:41:16;;;;;;;10.70;8.20;;;4.90;99.90;;;;;;5153331;27;20449;-91
2023/04/08 01:43:45;;;;;;;10.07;7.43;;;4.80;99.90;;;;;;5153086;27;20482;-91
2023/04/08 01:46:13;;;;;;;13.13;8.13;;;4.70;99.90;;;;;;5153996;27;20437;-91
2023/04/08 01:48:41;;;;;;;10.27;7.67;;;4.60;99.90;;;;;;5153418;27;20476;-91
2023/04/08 01:51:09;;;;;;;9.00;7.50;;;4.60;99.90;;;;;;5153646;27;20457;-91
2023/04/08 01:53:35;;;;;;;10.17;7.80;;;4.60;99.90;;;;;;5153158;27;20441;-91
2023/04/08 01:56:06;;;;;;;10.77;7.90;;;4.50;99.90;;;;;;5158046;27;20459;-91
2023/04/08 01:58:39;;;;;;;12.83;7.43;;;4.60;99.90;;;;;;5157408;27;20486;-91
2023/04/08 02:01:11;;;;;;;10.37;8.00;;;4.40;99.90;;;;;;5157192;27;20435;-91
2023/04/08 02:03:38;;;;;;;9.80;7.50;;;4.30;99.90;;;;;;5157187;27;20456;-90
2023/04/08 02:06:05;;;;;;;10.60;7.73;;;4.20;99.90;;;;;;5156751;27;20437;-90
2023/04/08 02:08:34;;;;;;;11.60;8.70;;;4.20;99.90;;;;;;5156443;27;20468;-91
2023/04/08 02:11:01;;;;;;;9.60;7.50;;;4.20;99.90;;;;;;5156283;27;20470;-92
2023/04/08 02:13:29;;;;;;;14.33;7.03;;;4.20;99.90;;;;;;5156401;27;20459;-91
2023/04/08 02:16:02;;;;;;;8.73;7.60;;;4.10;99.90;;;;;;5157201;27;20469;-91
2023/04/08 02:18:32;;;;;;;9.13;7.30;;;4.10;99.90;;;;;;5156138;27;20493;-90
2023/04/08 02:21:06;;;;;;;9.73;7.53;;;4.00;99.90;;;;;;5157013;27;20451;-91
2023/04/08 02:23:35;;;;;;;10.67;8.13;;;4.00;99.90;;;;;;5156595;27;20474;-91
2023/04/08 02:26:04;;;;;;;8.97;7.73;;;3.90;99.90;;;;;;5157430;27;20531;-91
2023/04/08 02:28:34;;;;;;;10.33;8.13;;;3.80;99.90;;;;;;5156515;27;20523;-90
2023/04/08 02:31:03;;;;;;;9.20;8.00;;;3.80;99.90;;;;;;5157255;27;20451;-91
2023/04/08 02:33:33;;;;;;;9.20;7.67;;;3.70;99.90;;;;;;5156344;27;20447;-90
2023/04/08 02:36:01;;;;;;;9.40;8.00;;;3.70;99.90;;;;;;5156801;27;20459;-91
2023/04/08 02:38:29;;;;;;;10.87;8.90;;;3.60;99.90;;;;;;5156511;27;20457;-90
2023/04/08 02:40:56;;;;;;;10.60;8.23;;;3.60;99.90;;;;;;5157536;27;20445;-90
2023/04/08 02:43:25;;;;;;;10.57;8.53;;;3.50;99.90;;;;;;5157275;27;20436;-91
2023/04/08 02:45:52;;;;;;;10.80;7.80;;;3.50;99.90;;;;;;5156627;27;20458;-91
2023/04/08 02:48:19;;;;;;;9.73;8.40;;;3.50;99.90;;;;;;5156204;27;20455;-91
2023/04/08 02:50:47;;;;;;;14.27;8.10;;;3.50;99.90;;;;;;5155507;27;20457;-90
2023/04/08 02:53:14;;;;;;;9.83;8.00;;;3.40;99.90;;;;;;5156164;27;20442;-91
2023/04/08 02:55:41;;;;;;;10.43;7.53;;;3.40;99.90;;;;;;5156731;27;20456;-90
2023/04/08 02:58:08;;;;;;;11.20;8.37;;;3.40;99.90;;;;;;5156302;27;20458;-91
2023/04/08 03:00:35;;;;;;;9.93;7.97;;;3.40;99.90;;;;;;5177928;27;20471;-91
2023/04/08 03:03:01;;;;;;;11.70;9.13;;;3.30;99.90;;;;;;5180553;27;20441;-92
2023/04/08 03:05:28;;;;;;;11.93;8.83;;;3.30;99.90;;;;;;5167082;27;20452;-90
2023/04/08 03:07:56;;;;;;;11.47;8.50;;;3.30;99.90;;;;;;5158818;27;20496;-90
2023/04/08 03:10:23;;;;;;;11.13;8.63;;;3.20;99.90;;;;;;5156046;27;20455;-91
2023/04/08 03:12:50;;;;;;;10.67;8.67;;;3.20;99.90;;;;;;5156107;27;20443;-90
2023/04/08 03:15:16;;;;;;;10.70;8.43;;;3.10;99.90;;;;;;5155568;27;20446;-90
2023/04/08 03:17:43;;;;;;;11.40;8.83;;;3.00;99.90;;;;;;5155540;27;20474;-91
2023/04/08 03:20:11;;;;;;;10.77;8.10;;;3.00;99.90;;;;;;5155345;27;20478;-90
2023/04/08 03:22:37;;;;;;;10.33;8.40;;;3.00;99.90;;;;;;5155549;27;20452;-90
2023/04/08 03:25:06;;;;;;;11.40;8.50;;;2.90;99.90;;;;;;5155459;27;20455;-91
2023/04/08 03:27:33;;;;;;;13.93;9.17;;;2.90;99.90;;;;;;5155175;27;20458;-92
2023/04/08 03:30:00;;;;;;;14.97;9.83;;;2.90;99.90;;;;;;5155364;27;20461;-91
2023/04/08 03:32:26;;;;;;;13.03;8.53;;;2.90;99.90;;;;;;5155266;27;20444;-91
2023/04/08 03:34:53;;;;;;;13.87;9.87;;;2.80;99.90;;;;;;5155121;27;20458;-91
2023/04/08 03:37:20;;;;;;;15.00;9.90;;;2.80;99.90;;;;;;5154906;27;20479;-91
2023/04/08 03:39:47;;;;;;;13.30;9.33;;;2.80;99.90;;;;;;5154955;27;20496;-90
2023/04/08 03:42:15;;;;;;;12.80;9.90;;;2.80;99.90;;;;;;5155315;27;20473;-91
2023/04/08 03:44:41;;;;;;;13.53;9.97;;;2.80;99.90;;;;;;5154700;27;20506;-91
2023/04/08 03:47:08;;;;;;;13.87;10.57;;;2.90;99.90;;;;;;5155235;27;20470;-91
2023/04/08 03:49:35;;;;;;;16.60;10.47;;;2.90;99.90;;;;;;5155041;27;20451;-91
2023/04/08 03:52:01;;;;;;;16.83;10.87;;;2.90;99.90;;;;;;5155077;27;20514;-90
2023/04/08 03:54:28;;;;;;;15.57;10.47;;;2.90;99.90;;;;;;5154562;27;20487;-91
2023/04/08 03:56:55;;;;;;;15.70;10.63;;;2.90;99.90;;;;;;5146234;27;20468;-91
2023/04/08 03:59:23;;;;;;;15.53;10.60;;;2.90;99.90;;;;;;5154711;27;20478;-91
2023/04/08 04:01:52;;;;;;;18.97;10.40;;;2.90;99.90;;;;;;5154885;27;20477;-91
2023/04/08 04:04:19;;;;;;;11.90;9.27;;;2.80;99.90;;;;;;5154287;27;20461;-91
2023/04/08 04:06:46;;;;;;;16.07;9.63;;;2.80;99.90;;;;;;5154508;27;20566;-90
2023/04/08 04:09:14;;;;;;;17.37;10.10;;;2.70;99.90;;;;;;5154160;27;20468;-91
2023/04/08 04:11:40;;;;;;;16.03;10.70;;;2.70;99.90;;;;;;5154204;27;20478;-90
2023/04/08 04:14:07;;;;;;;16.20;10.73;;;2.70;99.90;;;;;;5154367;27;20450;-91
2023/04/08 04:16:35;;;;;;;19.40;12.20;;;2.70;99.90;;;;;;5154689;27;20856;-91
2023/04/08 04:19:02;;;;;;;21.03;12.30;;;2.70;99.90;;;;;;5153979;27;20439;-90
2023/04/08 04:21:29;;;;;;;16.27;11.33;;;2.70;99.90;;;;;;5154438;27;20454;-91
2023/04/08 04:23:55;;;;;;;17.97;12.20;;;2.70;99.90;;;;;;5153709;27;20449;-91
2023/04/08 04:26:22;;;;;;;19.33;12.70;;;2.70;99.90;;;;;;5154153;27;20871;-91
2023/04/08 04:28:49;;;;;;;20.70;12.63;;;2.80;99.90;;;;;;5154358;27;20458;-91
2023/04/08 04:31:20;;;;;;;16.30;11.50;;;2.80;99.90;;;;;;5154134;27;20550;-89
2023/04/08 04:33:48;;;;;;;18.43;11.90;;;2.90;99.90;;;;;;5154309;27;20451;-91
2023/04/08 04:36:15;;;;;;;15.87;10.17;;;2.80;99.90;;;;;;5154787;27;20459;-91
2023/04/08 04:38:43;;;;;;;14.90;10.40;;;2.90;99.90;;;;;;5153819;27;20874;-90
2023/04/08 04:41:10;;;;;;;18.13;11.00;;;2.80;99.90;;;;;;5154350;27;20503;-90
2023/04/08 04:43:37;;;;;;;17.67;10.97;;;2.80;99.90;;;;;;5154183;27;20479;-90
2023/04/08 04:46:07;;;;;;;20.10;11.60;;;2.80;99.90;;;;;;5154386;27;20511;-91
2023/04/08 04:48:34;;;;;;;18.80;11.87;;;2.80;99.90;;;;;;5154188;27;20473;-91
2023/04/08 04:51:03;;;;;;;24.30;13.03;;;2.80;99.90;;;;;;5153571;27;20463;-90
2023/04/08 04:53:30;;;;;;;17.43;11.70;;;2.90;99.90;;;;;;5154068;27;20815;-90
2023/04/08 04:55:56;;;;;;;18.20;11.57;;;2.90;99.90;;;;;;5154181;27;20455;-91
2023/04/08 04:58:23;;;;;;;18.20;12.10;;;2.90;99.90;;;;;;5154059;27;20471;-91
2023/04/08 05:00:50;;;;;;;18.17;11.00;;;2.90;99.90;;;;;;5153881;27;20480;-91
2023/04/08 05:06:40;;;;;;;16.80;10.50;;;2.90;99.90;;;;;;5154151;27;20461;-90
2023/04/08 05:09:07;;;;;;;17.90;10.90;;;2.80;99.90;;;;;;5154362;27;20462;-90
2023/04/08 05:11:33;;;;;;;15.27;10.10;;;2.80;99.90;;;;;;5153437;27;20445;-88
2023/04/08 05:14:00;;;;;;;17.00;10.60;;;2.80;99.90;;;;;;5153583;27;20564;-90
2023/04/08 05:16:27;;;;;;;16.07;11.00;;;2.80;99.90;;;;;;5153819;27;20435;-91
2023/04/08 05:18:53;;;;;;;16.13;10.67;;;2.80;99.90;;;;;;5153352;27;20470;-91
2023/04/08 05:21:20;;;;;;;14.40;10.50;;;2.80;99.90;;;;;;5153490;27;20484;-89
2023/04/08 05:23:49;;;;;;;17.17;11.53;;;2.90;99.90;;;;;;5153778;27;20461;-90
2023/04/08 05:26:16;;;;;;;15.03;10.00;;;2.90;99.90;;;;;;5163607;27;20476;-91
2023/04/08 05:28:43;;;;;;;14.97;10.50;;;2.90;99.90;;;;;;5156391;27;20465;-91
2023/04/08 05:31:10;;;;;;;15.90;10.43;;;2.90;99.90;;;;;;5157863;27;20455;-91
2023/04/08 05:33:37;;;;;;;15.30;10.30;;;2.90;99.90;;;;;;5157516;27;20865;-90
2023/04/08 05:36:04;;;;;;;16.33;10.40;;;2.90;99.90;;;;;;5158441;27;20454;-90
2023/04/08 05:38:30;;;;;;;15.70;10.10;;;2.90;99.90;;;;;;5159113;27;20485;-91
2023/04/08 05:40:59;;;;;;;19.00;11.70;;;3.00;99.90;;;;;;5159491;27;20485;-91
2023/04/08 05:43:25;;;;;;;16.20;11.37;;;3.00;99.90;;;;;;5159856;27;20454;-90
2023/04/08 05:45:52;;;;;;;19.07;12.53;;;3.00;99.90;;;;;;5159514;27;20475;-90
2023/04/08 05:48:19;;;;;;;15.80;11.10;;;3.10;99.90;;;;;;5160343;27;20480;-92
2023/04/08 05:50:47;;;;;;;18.37;12.27;;;3.20;99.90;;;;;;5160069;27;20802;-90
2023/04/08 05:53:14;;;;;;;15.83;10.40;;;3.30;99.90;;;;;;5160223;27;20448;-92
2023/04/08 05:55:40;;;;;;;16.43;11.27;;;3.30;99.90;;;;;;5159381;27;20939;-91
2023/04/08 05:58:09;;;;;;;19.03;12.67;;;3.40;99.90;;;;;;5158524;27;20470;-91
2023/04/08 06:00:35;;;;;;;19.73;13.00;;;3.40;99.90;;;;;;5158025;27;20479;-88
2023/04/08 06:03:02;;;;;;;18.00;11.03;;;3.50;99.90;;;;;;5170373;27;20465;-91
2023/04/08 06:05:28;;;;;;;18.87;11.93;;;3.60;99.90;;;;;;5181447;27;20482;-91
2023/04/08 06:07:55;;;;;;;17.17;11.70;;;3.70;99.90;;;;;;5170604;27;20542;-91
2023/04/08 06:10:22;;;;;;;18.43;13.50;;;3.80;99.90;;;;;;5158731;27;20453;-91
2023/04/08 06:12:48;;;;;;;19.93;13.40;;;3.90;99.90;;;;;;5159302;27;20443;-91
2023/04/08 06:15:16;;;;;;;22.80;14.73;;;4.10;99.90;;;;;;5157946;27;20481;-90
2023/04/08 06:17:43;;;;;;;19.33;13.30;;;4.20;99.90;;;;;;5158077;27;20534;-91
2023/04/08 06:20:10;;;;;;;19.23;12.53;;;4.30;99.90;;;;;;5157999;27;20472;-90
2023/04/08 06:22:37;;;;;;;19.57;12.47;;;4.40;99.90;;;;;;5157749;27;20458;-90
2023/04/08 06:25:04;;;;;;;22.90;13.23;;;4.60;99.90;;;;;;5158796;27;20522;-91
2023/04/08 06:27:31;;;;;;;20.30;12.57;;;4.60;99.90;;;;;;5158032;27;20486;-91
2023/04/08 06:29:58;;;;;;;17.07;12.20;;;4.70;99.90;;;;;;5157145;27;20449;-90
2023/04/08 06:32:26;;;;;;;18.30;12.43;;;4.70;99.90;;;;;;5156341;27;20451;-90
2023/04/08 06:34:53;;;;;;;15.60;11.63;;;4.80;99.90;;;;;;5157208;27;20439;-91
2023/04/08 06:37:19;;;;;;;18.80;12.20;;;4.80;99.90;;;;;;5156547;27;20517;-91
2023/04/08 06:39:46;;;;;;;19.30;13.37;;;4.90;99.90;;;;;;5155699;27;20520;-91
2023/04/08 06:42:13;;;;;;;22.27;12.90;;;4.90;99.90;;;;;;5156142;27;20518;-91
2023/04/08 06:44:39;;;;;;;24.23;12.80;;;5.00;99.90;;;;;;5156967;27;20496;-90
2023/04/08 06:47:06;;;;;;;19.43;12.57;;;5.10;99.90;;;;;;5157129;27;20527;-89
2023/04/08 06:49:34;;;;;;;16.37;12.10;;;5.20;99.90;;;;;;5156870;27;20476;-92
2023/04/08 06:52:01;;;;;;;17.93;12.73;;;5.20;99.90;;;;;;5156327;27;20477;-91
2023/04/08 06:54:27;;;;;;;17.60;12.20;;;5.30;99.90;;;;;;5156244;27;20566;-92
2023/04/08 06:56:54;;;;;;;17.10;12.20;;;5.30;99.90;;;;;;5155753;27;20806;-91
2023/04/08 06:59:21;;;;;;;21.30;13.73;;;5.40;99.90;;;;;;5156613;27;20959;-91
2023/04/08 07:01:47;;;;;;;23.30;12.87;;;5.40;99.90;;;;;;5156335;27;21085;-91
2023/04/08 07:04:14;;;;;;;24.00;13.10;;;5.50;99.90;;;;;;5156642;27;20513;-91
2023/04/08 07:06:42;;;;;;;21.50;13.00;;;5.40;99.90;;;;;;5156112;27;20444;-92
2023/04/08 07:09:09;;;;;;;20.77;12.53;;;5.50;99.90;;;;;;5156335;27;20940;-92
2023/04/08 07:11:35;;;;;;;19.40;12.73;;;5.50;99.90;;;;;;5156617;27;20454;-89
2023/04/08 07:14:02;;;;;;;17.40;11.60;;;5.50;99.90;;;;;;5155988;27;20447;-90
2023/04/08 07:16:29;;;;;;;16.40;11.53;;;5.50;99.90;;;;;;5155828;27;20473;-90
2023/04/08 07:18:56;;;;;;;16.53;11.40;;;5.50;99.90;;;;;;5155210;27;20503;-89
2023/04/08 07:21:23;;;;;;;16.00;11.27;;;5.40;99.90;;;;;;5155068;27;21017;-91
2023/04/08 07:23:51;;;;;;;20.13;11.77;;;5.40;99.90;;;;;;5156423;27;20497;-90
2023/04/08 07:26:18;;;;;;;15.83;12.13;;;5.40;99.90;;;;;;5156211;27;20457;-91
2023/04/08 07:28:45;;;;;;;25.80;13.63;;;5.40;99.90;;;;;;5155564;27;20470;-90
2023/04/08 07:31:13;;;;;;;23.57;13.50;;;5.50;99.90;;;;;;5155889;27;20941;-90
2023/04/08 07:33:40;;;;;;;22.00;14.23;;;5.70;99.90;;;;;;5155242;27;20456;-87
2023/04/08 07:36:06;;;;;;;19.40;13.07;;;5.60;99.90;;;;;;5155766;27;20497;-90
2023/04/08 07:38:33;;;;;;;20.70;12.70;;;5.70;99.90;;;;;;5154729;27;20970;-89
2023/04/08 07:41:01;;;;;;;19.37;12.70;;;5.70;99.90;;;;;;5155104;27;20556;-91
2023/04/08 07:43:28;;;;;;;19.57;12.70;;;5.80;99.90;;;;;;5154596;27;20952;-90
2023/04/08 07:46:01;;;;;;;18.43;12.27;;;5.80;99.90;;;;;;5154629;27;20441;-91
2023/04/08 07:48:28;;;;;;;18.50;12.33;;;5.80;99.90;;;;;;5155105;27;20518;-91
2023/04/08 07:50:54;;;;;;;20.63;12.90;;;5.90;99.90;;;;;;5155181;27;20457;-91
2023/04/08 07:53:21;;;;;;;21.83;14.10;;;5.90;99.90;;;;;;5153451;27;20512;-90
2023/04/08 07:55:48;;;;;;;18.93;12.50;;;5.90;99.90;;;;;;5154481;27;20871;-90
2023/04/08 07:58:16;;;;;;;16.80;12.17;;;5.90;99.90;;;;;;5154636;27;20461;-90
2023/04/08 08:00:43;;;;;;;18.03;12.20;;;5.90;99.90;;;;;;5154786;27;20568;-89
2023/04/08 08:03:09;;;;;;;22.87;14.03;;;6.00;99.90;;;;;;5155000;27;20450;-90
2023/04/08 08:05:36;;;;;;;22.43;14.80;;;6.00;99.90;;;;;;5156030;27;20453;-90
2023/04/08 08:08:03;;;;;;;19.50;13.50;;;6.00;99.90;;;;;;5155825;27;21159;-90
2023/04/08 08:10:30;;;;;;;18.03;11.57;;;6.00;99.90;;;;;;5155147;27;20444;-90
2023/04/08 08:12:57;;;;;;;20.07;12.57;;;6.00;99.90;;;;;;5154636;27;20445;-89
2023/04/08 08:15:25;;;;;;;18.03;13.07;;;6.10;99.90;;;;;;5154819;27;20456;-90
2023/04/08 08:17:51;;;;;;;21.27;13.60;;;6.00;99.90;;;;;;5154850;27;20474;-92
2023/04/08 08:20:18;;;;;;;18.00;12.43;;;6.00;99.90;;;;;;5158534;27;20528;-90
2023/04/08 08:22:45;;;;;;;17.60;13.20;;;6.00;99.90;;;;;;5156336;27;20455;-92
2023/04/08 08:25:12;;;;;;;24.00;14.90;;;6.00;99.90;;;;;;5154423;27;20455;-91
2023/04/08 08:27:40;;;;;;;23.13;14.23;;;6.00;99.90;;;;;;5154092;27;20528;-91
2023/04/08 08:30:09;;;;;;;20.97;14.30;;;6.00;99.90;;;;;;5155766;27;20474;-91
2023/04/08 08:32:37;;;;;;;23.43;12.77;;;6.10;99.90;;;;;;5155608;27;20528;-92
2023/04/08 08:35:04;;;;;;;19.50;13.27;;;6.10;99.90;;;;;;5155188;27;20473;-92
2023/04/08 08:37:30;;;;;;;21.33;14.13;;;6.20;99.90;;;;;;5155408;27;20517;-92
2023/04/08 08:39:57;;;;;;;23.73;14.90;;;6.20;99.90;;;;;;5156592;27;20433;-91
2023/04/08 08:42:25;;;;;;;20.83;13.80;;;6.40;99.90;;;;;;5156866;27;20902;-92
2023/04/08 08:44:52;;;;;;;20.40;14.70;;;6.40;99.90;;;;;;5156878;27;20505;-91
2023/04/08 08:47:19;;;;;;;21.80;13.80;;;6.60;99.90;;;;;;5157410;27;20970;-91
2023/04/08 08:49:48;;;;;;;20.33;14.47;;;6.70;99.90;;;;;;5157066;27;20912;-90
2023/04/08 08:52:16;;;;;;;20.67;14.27;;;6.70;99.90;;;;;;5157147;27;20461;-92
2023/04/08 08:54:43;;;;;;;23.27;13.47;;;6.80;99.90;;;;;;5157394;27;20476;-92
2023/04/08 08:57:17;;;;;;;21.03;14.10;;;6.90;99.90;;;;;;5158454;27;20470;-92
2023/04/08 08:59:46;;;;;;;20.37;14.13;;;6.90;99.90;;;;;;5159068;27;20433;-90
2023/04/08 09:02:25;;;;;;;21.80;14.07;;;6.90;99.90;;;;;;5158389;27;21014;-92
2023/04/08 09:04:58;;;;;;;19.03;13.23;;;6.90;99.90;;;;;;5166211;27;20429;-91
2023/04/08 09:07:26;;;;;;;17.47;12.67;;;6.90;99.90;;;;;;5178799;27;20457;-92
2023/04/08 09:09:53;;;;;;;19.63;13.30;;;6.90;99.90;;;;;;5169112;27;20857;-93
2023/04/08 09:12:20;;;;;;;18.10;13.20;;;6.90;99.90;;;;;;5156117;27;20451;-92
2023/04/08 09:14:48;;;;;;;24.67;14.00;;;7.00;99.90;;;;;;5154356;27;20852;-90
2023/04/08 09:17:14;;;;;;;16.10;11.80;;;7.00;99.90;;;;;;5157763;27;20600;-92
2023/04/08 09:20:10;;;;;;;20.30;13.73;;;7.00;99.90;;;;;;5154659;27;20437;-91
2023/04/08 09:22:56;;;;;;;19.90;14.00;;;7.00;99.90;;;;;;5151273;27;20478;-90
2023/04/08 09:25:24;;;;;;;18.40;13.10;;;7.10;99.90;;;;;;5155879;27;20449;-91
2023/04/08 09:27:51;;;;;;;22.00;13.70;;;7.10;99.90;;;;;;5156383;27;20846;-91
2023/04/08 09:30:18;;;;;;;16.50;11.93;;;7.10;99.90;;;;;;5156448;27;20441;-91
2023/04/08 09:32:49;;;;;;;16.23;11.60;;;7.10;99.90;;;;;;5156381;27;20444;-88
2023/04/08 09:35:18;;;;;;;17.50;12.67;;;7.10;99.90;;;;;;5157095;27;20464;-90
2023/04/08 09:37:45;;;;;;;18.73;13.40;;;7.10;99.90;;;;;;5155519;27;20461;-89
2023/04/08 09:40:14;;;;;;;19.53;13.80;;;7.10;99.90;;;;;;5147671;27;20446;-89
2023/04/08 09:42:43;;;;;;;21.57;15.37;;;7.20;99.90;;;;;;5155412;27;20894;-91
2023/04/08 09:45:12;;;;;;;24.80;15.10;;;7.10;99.90;;;;;;5156253;27;20432;-91
2023/04/08 09:47:48;;;;;;;21.13;14.17;;;7.10;99.90;;;;;;5155788;27;20454;-90
2023/04/08 09:50:18;;;;;;;17.40;14.30;;;7.20;99.90;;;;;;5155200;27;20442;-91
2023/04/08 09:52:49;;;;;;;22.23;14.90;;;7.20;99.90;;;;;;5155978;27;20823;-90
2023/04/08 09:55:21;;;;;;;21.80;13.97;;;7.20;99.90;;;;;;5154400;27;20467;-90
2023/04/08 09:57:55;;;;;;;20.70;13.57;;;7.20;99.90;;;;;;5153641;27;20465;-88
2023/04/08 10:00:28;;;;;;;22.50;15.47;;;7.30;99.90;;;;;;5154946;27;20438;-90
2023/04/08 10:02:59;;;;;;;19.70;14.10;;;7.50;99.90;;;;;;5154553;27;20447;-90
2023/04/08 10:05:28;;;;;;;19.10;13.30;;;7.70;99.90;;;;;;5154237;27;20783;-91
2023/04/08 10:07:56;;;;;;;21.33;14.87;;;7.90;99.90;;;;;;5153802;27;21019;-91
2023/04/08 10:10:23;;;;;;;17.80;12.73;;;7.90;99.90;;;;;;5156259;27;20479;-91
2023/04/08 10:12:51;;;;;;;20.73;14.23;;;8.00;99.90;;;;;;5154763;27;20451;-90
2023/04/08 10:15:27;;;;;;;18.50;13.43;;;8.10;99.90;;;;;;5154866;27;20453;-90
2023/04/08 10:17:55;;;;;;;19.30;12.10;;;8.10;99.90;;;;;;5157756;27;20509;-91
2023/04/08 10:20:45;;;;;;;20.33;12.30;;;8.10;99.90;;;;;;5157848;27;20476;-90
2023/04/08 10:23:13;;;;;;;17.70;12.07;;;8.10;99.90;;;;;;5157696;27;20504;-90
2023/04/08 10:25:41;;;;;;;17.93;12.87;;;8.30;99.90;;;;;;5157476;27;20873;-91
2023/04/08 10:28:26;;;;;;;19.43;12.30;;;8.20;99.90;;;;;;5158134;27;20836;-91
2023/04/08 10:30:54;;;;;;;17.63;13.07;;;8.20;99.90;;;;;;5157935;27;20521;-90
2023/04/08 10:33:23;;;;;;;17.30;12.43;;;8.30;99.90;;;;;;5156874;27;20941;-90
2023/04/08 10:35:54;;;;;;;19.40;13.03;;;8.30;99.90;;;;;;5157342;27;20458;-89
2023/04/08 10:38:21;;;;;;;24.33;14.53;;;8.40;99.90;;;;;;5157848;27;20472;-90
2023/04/08 10:40:50;;;;;;;21.90;12.67;;;8.50;99.90;;;;;;5157070;27;21125;-90
2023/04/08 10:43:17;;;;;;;15.37;11.63;;;8.50;99.90;;;;;;5149035;27;21110;-90
2023/04/08 10:45:44;;;;;;;17.60;11.90;;;8.50;99.90;;;;;;5157798;27;20441;-89
2023/04/08 10:48:13;;;;;;;19.97;12.43;;;8.50;99.90;;;;;;5158066;27;20468;-91
2023/04/08 10:50:40;;;;;;;19.37;11.07;;;8.50;99.90;;;;;;5156633;27;20445;-91
2023/04/08 10:53:10;;;;;;;17.40;11.70;;;8.60;99.90;;;;;;5156857;27;20512;-91
2023/04/08 10:55:36;;;;;;;15.97;12.03;;;8.30;99.90;;;;;;5157768;27;20859;-91
2023/04/08 10:58:07;;;;;;;17.43;12.90;;;8.30;99.90;;;;;;5157588;27;20464;-90
2023/04/08 11:00:36;;;;;;;16.23;11.83;;;8.30;99.90;;;;;;5157067;27;20536;-90
2023/04/08 11:03:03;;;;;;;16.40;12.83;;;8.30;99.90;;;;;;5157820;27;20532;-90
2023/04/08 11:05:30;;;;;;;19.27;11.80;;;8.20;99.90;;;;;;5156376;27;20984;-90
2023/04/08 11:07:57;;;;;;;20.40;13.00;;;8.20;99.90;;;;;;5156839;27;20548;-90
2023/04/08 11:10:26;;;;;;;17.97;11.60;;;8.30;99.90;;;;;;5156917;27;20460;-89
2023/04/08 11:12:54;;;;;;;20.50;13.40;;;8.30;99.90;;;;;;5156707;27;20444;-89
2023/04/08 11:15:21;;;;;;;14.77;11.57;;;8.40;99.90;;;;;;5155951;27;20445;-91
2023/04/08 11:17:48;;;;;;;16.90;12.30;;;8.40;99.90;;;;;;5155918;27;20476;-90
2023/04/08 11:20:15;;;;;;;22.57;11.80;;;8.50;99.90;;;;;;5155787;27;20852;-90
2023/04/08 11:22:42;;;;;;;17.73;12.90;;;8.60;99.90;;;;;;5156052;27;20481;-91
2023/04/08 11:25:10;;;;;;;17.10;12.43;;;8.70;99.90;;;;;;5155787;27;20808;-90
2023/04/08 11:27:39;;;;;;;18.23;11.93;;;8.90;99.90;;;;;;5156267;27;20486;-91
2023/04/08 11:30:07;;;;;;;19.37;12.27;;;8.90;99.90;;;;;;5156173;27;20453;-91
2023/04/08 11:32:36;;;;;;;18.63;12.60;;;9.00;99.90;;;;;;5156154;27;20875;-90
2023/04/08 11:35:05;;;;;;;22.23;12.00;;;9.10;99.90;;;;;;5155804;27;20453;-91
2023/04/08 11:37:37;;;;;;;18.03;11.63;;;9.20;99.90;;;;;;5156317;27;20483;-91
2023/04/08 11:40:08;;;;;;;17.73;12.40;;;9.30;99.90;;;;;;5155592;27;20944;-90
2023/04/08 11:42:34;;;;;;;16.30;11.53;;;9.30;99.90;;;;;;5154652;27;20522;-91
2023/04/08 11:45:11;;;;;;;17.43;12.40;;;9.40;99.90;;;;;;5154814;27;20442;-91
2023/04/08 11:47:38;;;;;;;23.20;11.80;;;9.40;99.90;;;;;;5155325;27;20565;-91
2023/04/08 11:50:06;;;;;;;17.57;11.57;;;9.40;99.90;;;;;;5155252;27;20917;-92
2023/04/08 11:52:45;;;;;;;20.47;13.50;;;9.40;99.90;;;;;;5155059;27;20652;-90
2023/04/08 11:55:21;;;;;;;17.57;12.80;;;9.40;99.90;;;;;;5155123;27;20451;-91
2023/04/08 11:57:48;;;;;;;15.70;11.13;;;9.40;99.90;;;;;;5155986;27;20464;-90
2023/04/08 12:00:16;;;;;;;19.07;12.73;;;9.40;99.90;;;;;;5155224;27;20436;-91
2023/04/08 12:02:42;;;;;;;15.73;11.37;;;9.60;99.90;;;;;;5155818;27;21068;-91
2023/04/08 12:05:09;;;;;;;16.40;11.57;;;9.50;99.90;;;;;;5164257;27;20454;-91
2023/04/08 12:07:37;;;;;;;17.07;12.20;;;9.60;99.90;;;;;;5179537;27;20472;-90
2023/04/08 12:10:04;;;;;;;19.57;12.80;;;9.70;99.90;;;;;;5171743;27;20445;-89
2023/04/08 12:12:31;;;;;;;17.13;11.30;;;9.70;99.90;;;;;;5155650;27;20497;-90
2023/04/08 12:14:57;;;;;;;16.43;12.20;;;9.70;99.90;;;;;;5155101;27;20451;-91
2023/04/08 12:17:26;;;;;;;16.30;11.53;;;9.70;99.90;;;;;;5154960;27;20482;-90
2023/04/08 12:19:52;;;;;;;19.47;12.70;;;9.70;99.90;;;;;;5154622;27;20466;-89
2023/04/08 12:22:19;;;;;;;17.40;11.97;;;9.70;99.90;;;;;;5146175;27;20476;-89
2023/04/08 12:24:46;;;;;;;19.53;12.60;;;9.80;99.90;;;;;;5154760;27;20500;-89
2023/04/08 12:27:12;;;;;;;19.30;12.80;;;9.90;99.90;;;;;;5154769;27;20731;-90
2023/04/08 12:29:39;;;;;;;20.13;12.10;;;10.10;99.90;;;;;;5157322;27;20475;-91
2023/04/08 12:32:06;;;;;;;18.87;12.60;;;10.10;99.90;;;;;;5158547;27;20461;-92
2023/04/08 12:34:34;;;;;;;19.93;13.00;;;10.10;99.90;;;;;;5157329;27;20451;-90
2023/04/08 12:37:01;;;;;;;16.67;11.90;;;10.20;99.90;;;;;;5156768;27;20470;-91
2023/04/08 12:39:28;;;;;;;18.97;12.60;;;10.20;99.90;;;;;;5157474;27;20450;-93
2023/04/08 12:41:55;;;;;;;15.57;12.00;;;10.30;99.90;;;;;;5156873;27;20491;-89
2023/04/08 12:44:22;;;;;;;16.60;12.10;;;10.30;99.90;;;;;;5155752;27;20511;-91
2023/04/08 12:46:49;;;;;;;15.27;11.73;;;10.20;99.90;;;;;;5155154;27;20500;-91
2023/04/08 12:49:16;;;;;;;17.63;12.53;;;10.30;99.90;;;;;;5156023;27;20450;-91